Time;durP1;ratioP1;P1;durP2;ratioP2;P2;SDS_P1;SDS_P2;PMS_P1;PMS_P2;Temp;Humidity;BMP_temperature;BMP_pressure;BME280_temperature;BME280_humidity;BME280_pressure;Samples;Min_cycle;Max_cycle;Signal;HPM_P1;HPM_P2
2022/03/18 00:00:44;;;;;;;19.73;6.97;;;;;;;-1.75;93.95;103846.22;2053631;28;45000;-72
2022/03/18 00:01:46;;;;;;;17.42;6.95;;;;;;;-1.77;94.01;103850.44;2053127;28;45411;-72
2022/03/18 00:02:49;;;;;;;16.90;7.82;;;;;;;-1.79;94.57;103852.94;2046587;28;41343;-72
2022/03/18 00:03:52;;;;;;;16.23;6.78;;;;;;;-1.80;95.07;103853.75;2045226;28;44601;-72
2022/03/18 00:04:54;;;;;;;15.57;7.50;;;;;;;-1.84;94.36;103849.06;2045811;28;44475;-70
2022/03/18 00:05:56;;;;;;;27.10;11.40;;;;;;;-1.87;94.60;103847.91;2046528;28;44314;-71
2022/03/18 00:06:59;;;;;;;20.75;9.00;;;;;;;-1.86;95.02;103849.75;2046658;28;20118;-71
2022/03/18 00:08:01;;;;;;;23.55;10.10;;;;;;;-1.88;94.99;103856.59;2054321;28;20098;-71
2022/03/18 00:09:02;;;;;;;24.25;10.20;;;;;;;-1.92;95.15;103851.13;2053053;28;43930;-72
2022/03/18 00:10:07;;;;;;;25.77;9.23;;;;;;;-1.90;95.23;103855.56;2046038;28;45012;-70
2022/03/18 00:11:09;;;;;;;21.75;9.75;;;;;;;-1.90;94.55;103858.19;2053843;28;43704;-70
2022/03/18 00:12:11;;;;;;;26.58;12.25;;;;;;;-1.87;94.71;103863.69;2053143;28;45704;-69
2022/03/18 00:13:13;;;;;;;26.13;11.32;;;;;;;-1.86;95.21;103868.16;2046566;28;35882;-71
2022/03/18 00:14:15;;;;;;;24.00;11.02;;;;;;;-1.83;95.44;103857.84;2046117;28;44122;-71
2022/03/18 00:15:16;;;;;;;19.50;8.50;;;;;;;-1.86;94.67;103855.91;2046425;28;44874;-71
2022/03/18 00:16:18;;;;;;;18.50;7.90;;;;;;;-1.86;95.55;103865.53;2045936;28;42541;-70
2022/03/18 00:17:20;;;;;;;18.42;8.50;;;;;;;-1.86;95.37;103878.66;2046902;28;45709;-70
2022/03/18 00:18:21;;;;;;;24.15;9.77;;;;;;;-1.86;94.74;103874.31;2046879;28;45639;-70
2022/03/18 00:19:25;;;;;;;20.40;9.45;;;;;;;-1.83;94.78;103870.97;2047131;28;41048;-70
2022/03/18 00:20:27;;;;;;;21.10;9.13;;;;;;;-1.84;95.09;103866.53;2046792;28;46180;-69
2022/03/18 00:21:29;;;;;;;19.52;8.20;;;;;;;-1.86;95.30;103865.53;2047080;28;43418;-69
2022/03/18 00:22:31;;;;;;;16.15;6.75;;;;;;;-1.87;94.94;103866.31;2047520;28;20035;-71
2022/03/18 00:23:33;;;;;;;16.05;6.95;;;;;;;-1.87;95.23;103864.56;2047065;28;42048;-69
2022/03/18 00:24:36;;;;;;;17.33;6.15;;;;;;;-1.87;95.40;103871.56;2046795;28;45493;-69
2022/03/18 00:25:38;;;;;;;14.68;6.45;;;;;;;-1.89;94.95;103866.19;2046773;28;44329;-70
2022/03/18 00:26:39;;;;;;;15.57;5.90;;;;;;;-1.88;94.92;103869.72;2047072;28;28485;-70
2022/03/18 00:27:43;;;;;;;18.88;6.60;;;;;;;-1.88;95.61;103867.09;2048462;28;20770;-69
2022/03/18 00:28:45;;;;;;;14.00;6.35;;;;;;;-1.87;95.52;103871.56;2046885;28;39454;-69
2022/03/18 00:29:47;;;;;;;16.65;6.50;;;;;;;-1.88;95.76;103873.28;2046468;28;42134;-69
2022/03/18 00:30:49;;;;;;;20.02;7.22;;;;;;;-1.87;95.04;103866.31;2046543;28;23889;-69
2022/03/18 00:31:53;;;;;;;15.30;7.13;;;;;;;-1.88;95.02;103873.28;2055286;28;20039;-69
2022/03/18 00:32:55;;;;;;;13.18;6.22;;;;;;;-1.85;95.91;103867.31;2053387;28;43972;-69
2022/03/18 00:34:09;;;;;;;16.17;6.43;;;;;;;-1.85;95.46;103872.56;2046150;28;44999;-69
2022/03/18 00:35:11;;;;;;;14.75;5.93;;;;;;;-1.88;94.58;103875.91;2046700;28;41992;-70
2022/03/18 00:36:13;;;;;;;18.48;6.82;;;;;;;-1.89;95.21;103876.69;2046934;28;43027;-69
2022/03/18 00:37:15;;;;;;;11.32;5.20;;;;;;;-1.89;95.03;103871.44;2046293;28;43272;-69
2022/03/18 00:38:16;;;;;;;14.07;6.63;;;;;;;-1.93;95.16;103878.16;2046729;28;44111;-69
2022/03/18 00:39:18;;;;;;;17.05;6.18;;;;;;;-1.94;94.89;103871.09;2053648;28;46641;-71
2022/03/18 00:40:20;;;;;;;15.50;6.53;;;;;;;-1.94;95.05;103878.03;2054580;28;42519;-69
2022/03/18 00:41:22;;;;;;;17.38;6.88;;;;;;;-1.94;94.63;103872.78;2054511;28;20048;-69
2022/03/18 00:42:23;;;;;;;17.45;5.90;;;;;;;-1.92;94.80;103871.19;2046806;28;44308;-70
2022/03/18 00:43:25;;;;;;;14.48;6.95;;;;;;;-1.92;95.83;103880.00;2046628;28;42764;-70
2022/03/18 00:44:27;;;;;;;17.88;6.90;;;;;;;-1.92;95.56;103872.13;2047432;28;46259;-69
2022/03/18 00:45:29;;;;;;;18.35;7.25;;;;;;;-1.88;95.33;103870.66;2053609;28;39874;-70
2022/03/18 00:46:31;;;;;;;13.05;7.05;;;;;;;-1.87;95.96;103879.44;2053483;28;45298;-69
2022/03/18 00:52:55;;;;;;;15.65;5.75;;;;;;;-1.92;95.35;103874.75;2048375;28;45132;-69
2022/03/18 00:53:59;;;;;;;15.57;6.30;;;;;;;-1.94;94.95;103878.97;2054959;28;46497;-69
2022/03/18 00:55:00;;;;;;;13.05;6.25;;;;;;;-1.96;95.98;103879.66;2054942;28;43257;-70
2022/03/18 00:56:02;;;;;;;11.95;4.80;;;;;;;-1.95;95.90;103886.75;2047820;28;39837;-70
2022/03/18 00:57:04;;;;;;;16.48;6.50;;;;;;;-1.98;95.16;103881.25;2048108;28;43439;-69
2022/03/18 00:58:06;;;;;;;23.83;8.60;;;;;;;-1.98;95.23;103882.16;2055140;28;45477;-70
2022/03/18 00:59:08;;;;;;;15.88;7.68;;;;;;;-1.94;95.63;103884.22;2055156;28;44931;-69
2022/03/18 01:00:10;;;;;;;18.08;7.40;;;;;;;-1.93;96.06;103879.88;2055404;28;41966;-70
2022/03/18 01:01:14;;;;;;;20.83;7.88;;;;;;;-1.94;95.53;103876.34;2047610;28;45177;-70
2022/03/18 01:02:18;;;;;;;16.70;6.97;;;;;;;-1.93;96.52;103883.41;2047491;28;45705;-70
2022/03/18 01:03:21;;;;;;;17.73;7.65;;;;;;;-1.93;96.26;103883.41;2055132;28;34221;-70
2022/03/18 01:04:25;;;;;;;12.85;6.40;;;;;;;-1.92;96.41;103882.63;2047022;28;45461;-69
2022/03/18 01:05:26;;;;;;;15.35;6.85;;;;;;;-1.93;95.97;103880.78;2048148;28;42168;-69
2022/03/18 01:06:28;;;;;;;20.60;7.35;;;;;;;-1.93;96.56;103885.13;2054989;28;42894;-69
2022/03/18 01:07:30;;;;;;;18.30;6.68;;;;;;;-1.93;95.39;103893.00;2055067;28;47468;-70
2022/03/18 01:08:32;;;;;;;19.25;6.38;;;;;;;-1.96;96.34;103885.81;2047685;28;45294;-69
2022/03/18 01:09:34;;;;;;;22.90;7.45;;;;;;;-2.00;95.85;103891.63;2049234;28;20882;-69
2022/03/18 01:10:37;;;;;;;13.95;6.15;;;;;;;-2.02;96.07;103894.94;2047885;28;42009;-68
2022/03/18 01:11:39;;;;;;;15.60;6.88;;;;;;;-2.04;95.54;103905.31;2055229;28;45408;-70
2022/03/18 01:12:40;;;;;;;14.40;6.57;;;;;;;-2.03;95.98;103903.59;2055469;28;45529;-69
2022/03/18 01:13:42;;;;;;;18.73;8.95;;;;;;;-2.03;95.88;103904.50;2055649;28;44114;-70
2022/03/18 01:14:44;;;;;;;21.45;8.05;;;;;;;-2.01;95.56;103897.69;2047889;28;44665;-69
2022/03/18 01:15:45;;;;;;;17.80;7.88;;;;;;;-1.98;95.91;103911.03;2048632;28;44797;-69
2022/03/18 01:16:47;;;;;;;16.35;6.90;;;;;;;-1.97;96.48;103904.09;2047783;28;44544;-70
2022/03/18 01:17:49;;;;;;;17.58;8.25;;;;;;;-1.93;95.70;103911.41;2048867;28;21684;-69
2022/03/18 01:18:51;;;;;;;19.45;7.40;;;;;;;-1.90;96.90;103908.06;2047958;28;43342;-70
2022/03/18 01:19:52;;;;;;;21.83;7.57;;;;;;;-1.87;96.08;103901.34;2048412;28;42944;-70
2022/03/18 01:20:54;;;;;;;14.65;6.75;;;;;;;-1.77;96.03;103913.47;2048850;28;20032;-70
2022/03/18 01:21:56;;;;;;;20.10;6.75;;;;;;;-1.70;97.14;103909.63;2047635;28;42632;-70
2022/03/18 01:22:58;;;;;;;16.98;6.88;;;;;;;-1.62;97.61;103913.72;2056041;28;20039;-69
2022/03/18 01:23:59;;;;;;;20.92;7.25;;;;;;;-1.57;96.86;103917.59;2055384;28;43610;-70
2022/03/18 01:25:01;;;;;;;18.95;7.10;;;;;;;-1.54;97.28;103909.97;2047601;28;45279;-70
2022/03/18 01:26:03;;;;;;;17.65;6.75;;;;;;;-1.55;96.66;103908.13;2047668;28;46202;-70
2022/03/18 01:27:06;;;;;;;22.40;7.15;;;;;;;-1.46;97.46;103905.25;2047505;28;45420;-70
2022/03/18 01:28:08;;;;;;;16.45;7.10;;;;;;;-1.46;97.69;103907.91;2055349;28;46816;-68
2022/03/18 01:29:10;;;;;;;15.52;6.53;;;;;;;-1.43;97.46;103913.38;2056277;28;24289;-70
2022/03/18 01:30:13;;;;;;;19.00;6.20;;;;;;;-1.47;96.36;103917.50;2055170;28;44590;-70
2022/03/18 01:31:15;;;;;;;16.60;7.10;;;;;;;-1.46;97.02;103913.16;2047952;28;42639;-70
2022/03/18 01:32:17;;;;;;;14.10;6.15;;;;;;;-1.45;96.40;103917.63;2055555;28;39212;-69
2022/03/18 01:33:19;;;;;;;13.77;5.32;;;;;;;-1.51;97.04;103918.03;2054620;28;46157;-70
2022/03/18 01:34:20;;;;;;;14.73;6.68;;;;;;;-1.51;96.67;103919.78;2048661;28;36144;-70
2022/03/18 01:35:22;;;;;;;10.15;5.15;;;;;;;-1.54;96.73;103918.75;2048249;28;43595;-70
2022/03/18 01:36:25;;;;;;;10.05;4.50;;;;;;;-1.60;96.56;103926.19;2047842;28;46137;-70
2022/03/18 01:37:26;;;;;;;8.85;4.82;;;;;;;-1.67;96.42;103920.31;2047778;28;41019;-70
2022/03/18 01:38:28;;;;;;;12.40;5.18;;;;;;;-1.73;95.96;103921.69;2047930;28;42909;-69
2022/03/18 01:39:30;;;;;;;12.23;5.13;;;;;;;-1.77;96.44;103926.59;2048049;28;44590;-70
2022/03/18 01:40:32;;;;;;;11.13;5.25;;;;;;;-1.78;95.88;103919.50;2048049;28;44994;-70
2022/03/18 01:41:34;;;;;;;14.70;5.35;;;;;;;-1.80;96.66;103919.41;2047328;28;46580;-70
2022/03/18 01:42:35;;;;;;;16.27;5.68;;;;;;;-1.77;96.04;103916.09;2048671;28;20134;-70
2022/03/18 01:43:42;;;;;;;11.02;5.60;;;;;;;-1.77;96.54;103926.59;2047535;28;42913;-70
2022/03/18 01:44:46;;;;;;;15.73;5.22;;;;;;;-1.81;96.71;103932.41;2047772;28;45688;-70
2022/03/18 01:45:50;;;;;;;11.02;4.68;;;;;;;-1.86;96.60;103929.44;2047132;28;44074;-70
2022/03/18 01:46:51;;;;;;;10.50;4.60;;;;;;;-1.94;95.78;103927.94;2047633;28;44131;-69
2022/03/18 01:47:53;;;;;;;12.85;5.13;;;;;;;-1.98;96.35;103934.66;2047481;28;44046;-70
2022/03/18 01:48:55;;;;;;;11.35;5.65;;;;;;;-2.04;95.27;103933.28;2055287;28;45449;-69
2022/03/18 01:49:58;;;;;;;10.10;5.32;;;;;;;-2.08;95.51;103934.78;2046720;28;45274;-70
2022/03/18 01:51:02;;;;;;;11.57;5.63;;;;;;;-2.09;95.52;103932.94;2048313;28;20059;-71
2022/03/18 01:52:10;;;;;;;15.82;6.72;;;;;;;-2.13;95.59;103930.88;2054248;28;44359;-70
2022/03/18 01:53:12;;;;;;;14.40;5.60;;;;;;;-2.13;96.53;103944.91;2055084;28;43310;-70
2022/03/18 01:55:34;;;;;;;9.95;5.10;;;;;;;-2.14;96.11;103944.78;2055333;28;40359;-69
2022/03/18 01:56:37;;;;;;;11.13;4.32;;;;;;;-2.15;96.29;103940.34;2053419;28;20167;-71
2022/03/18 01:57:39;;;;;;;12.35;5.13;;;;;;;-2.21;96.04;103943.38;2048296;28;20821;-70
2022/03/18 01:58:41;;;;;;;12.00;5.38;;;;;;;-2.22;95.82;103943.28;2047518;28;41944;-71
2022/03/18 01:59:43;;;;;;;18.08;5.25;;;;;;;-2.21;96.23;103948.63;2055459;28;43965;-71
2022/03/18 02:00:45;;;;;;;10.52;4.80;;;;;;;-2.14;97.14;103947.41;2047309;28;46329;-69
2022/03/18 02:01:50;;;;;;;13.55;5.72;;;;;;;-2.12;97.12;103951.06;2040836;28;20179;-71
2022/03/18 02:02:52;;;;;;;12.85;5.10;;;;;;;-2.07;96.73;103952.34;2046843;28;44669;-71
2022/03/18 02:03:54;;;;;;;12.90;4.82;;;;;;;-2.07;97.50;103947.06;2048162;28;37848;-71
2022/03/18 02:04:57;;;;;;;17.50;4.68;;;;;;;-1.99;97.47;103955.53;2055492;28;45147;-69
2022/03/18 02:05:59;;;;;;;20.73;6.40;;;;;;;-1.95;97.90;103952.38;2046910;28;46370;-70
2022/03/18 02:07:03;;;;;;;14.90;5.57;;;;;;;-1.93;97.09;103949.06;2047611;28;23003;-70
2022/03/18 02:08:07;;;;;;;14.93;6.22;;;;;;;-1.89;97.25;103942.31;2055571;28;23175;-70
2022/03/18 02:09:10;;;;;;;14.30;5.40;;;;;;;-1.89;97.67;103938.81;2055283;28;36366;-70
2022/03/18 02:10:11;;;;;;;16.08;5.53;;;;;;;-1.94;97.52;103944.63;2055203;28;43634;-70
2022/03/18 02:11:13;;;;;;;10.77;4.88;;;;;;;-1.96;97.69;103943.56;2054424;28;46258;-70
2022/03/18 02:12:15;;;;;;;14.55;6.10;;;;;;;-1.95;97.70;103950.66;2055201;28;42362;-70
2022/03/18 02:13:18;;;;;;;14.73;5.50;;;;;;;-1.97;97.40;103951.34;2046631;28;45047;-70
2022/03/18 02:14:35;;;;;;;13.00;5.32;;;;;;;-1.95;97.14;103948.03;2047582;28;45438;-70
2022/03/18 02:15:37;;;;;;;16.77;6.38;;;;;;;-1.90;97.36;103943.16;2047880;28;45225;-70
2022/03/18 02:16:40;;;;;;;17.60;6.43;;;;;;;-1.90;97.44;103942.22;2047188;28;44768;-70
2022/03/18 02:17:42;;;;;;;15.30;5.65;;;;;;;-1.88;98.08;103946.81;2047732;28;42636;-70
2022/03/18 02:18:43;;;;;;;19.30;6.28;;;;;;;-1.83;97.63;103944.50;2047709;28;44531;-70
2022/03/18 02:19:47;;;;;;;11.80;5.40;;;;;;;-1.82;97.93;103943.72;2047707;28;45800;-70
2022/03/18 02:20:49;;;;;;;14.77;6.30;;;;;;;-1.88;97.19;103941.53;2055306;28;45497;-70
2022/03/18 02:21:54;;;;;;;16.25;6.07;;;;;;;-1.88;97.63;103940.59;2046434;28;44252;-71
2022/03/18 02:22:56;;;;;;;13.57;5.63;;;;;;;-1.86;97.83;103942.56;2048008;28;37232;-71
2022/03/18 02:23:58;;;;;;;16.25;6.03;;;;;;;-1.88;97.37;103943.22;2054736;28;43671;-71
2022/03/18 02:25:02;;;;;;;14.30;5.65;;;;;;;-1.84;97.16;103945.31;2054710;28;46431;-70
2022/03/18 02:26:04;;;;;;;11.65;5.65;;;;;;;-1.85;97.66;103940.84;2054487;28;34422;-70
2022/03/18 02:27:06;;;;;;;17.80;6.30;;;;;;;-1.86;97.60;103952.19;2047055;28;43604;-70
2022/03/18 02:28:08;;;;;;;10.40;4.65;;;;;;;-1.87;97.90;103951.22;2047049;28;45630;-70
2022/03/18 02:29:10;;;;;;;10.13;5.32;;;;;;;-1.89;97.27;103944.97;2054983;28;43725;-70
2022/03/18 02:30:11;;;;;;;15.43;6.57;;;;;;;-1.88;96.92;103944.19;2055124;28;46195;-70
2022/03/18 02:31:13;;;;;;;11.25;5.32;;;;;;;-1.87;97.78;103943.34;2054650;28;43437;-70
2022/03/18 02:32:16;;;;;;;11.85;5.85;;;;;;;-1.89;97.52;103954.56;2047228;28;45873;-70
2022/03/18 02:33:18;;;;;;;13.27;5.15;;;;;;;-1.90;97.37;103948.41;2047305;28;45876;-69
2022/03/18 02:34:20;;;;;;;11.15;5.13;;;;;;;-1.94;96.96;103952.50;2054855;28;45460;-70
2022/03/18 02:35:22;;;;;;;9.68;4.65;;;;;;;-1.96;96.99;103953.16;2055172;28;46388;-70
2022/03/18 02:36:23;;;;;;;17.95;5.95;;;;;;;-1.95;97.55;103952.38;2054750;28;34529;-70
2022/03/18 02:37:25;;;;;;;18.48;6.07;;;;;;;-2.00;97.53;103951.09;2054388;28;45221;-70
2022/03/18 02:38:27;;;;;;;9.80;4.90;;;;;;;-2.03;96.53;103951.75;2054826;28;44806;-70
2022/03/18 02:39:28;;;;;;;14.55;5.20;;;;;;;-2.02;97.20;103945.72;2054631;28;45839;-70
2022/03/18 02:40:30;;;;;;;19.45;5.43;;;;;;;-2.00;97.75;103945.84;2054825;28;44218;-70
2022/03/18 02:41:32;;;;;;;13.10;5.95;;;;;;;-2.00;97.72;103956.34;2054707;28;42445;-70
2022/03/18 02:42:34;;;;;;;11.85;5.63;;;;;;;-2.06;97.23;103959.41;2047597;28;45277;-70
2022/03/18 02:43:36;;;;;;;19.65;6.25;;;;;;;-2.09;97.38;103956.56;2048760;28;20798;-71
2022/03/18 02:44:41;;;;;;;10.15;4.22;;;;;;;-2.11;97.03;103969.56;2047299;28;43543;-70
2022/03/18 02:45:43;;;;;;;16.95;5.70;;;;;;;-2.16;97.19;103964.75;2047017;28;45293;-70
2022/03/18 02:46:45;;;;;;;14.65;4.75;;;;;;;-2.21;96.96;103963.47;2047030;28;46247;-70
2022/03/18 02:47:47;;;;;;;18.20;5.50;;;;;;;-2.28;97.19;103967.31;2047654;28;44978;-71
2022/03/18 02:48:48;;;;;;;15.15;5.05;;;;;;;-2.30;96.94;103971.53;2047570;28;46400;-70
2022/03/18 02:49:53;;;;;;;12.65;4.70;;;;;;;-2.33;96.84;103968.69;2048745;28;20809;-71
2022/03/18 02:50:55;;;;;;;12.15;5.00;;;;;;;-2.35;96.57;103965.94;2055865;28;20159;-71
2022/03/18 02:51:56;;;;;;;22.20;6.13;;;;;;;-2.36;96.85;103973.69;2054391;28;45800;-70
2022/03/18 02:53:00;;;;;;;14.65;5.90;;;;;;;-2.36;96.78;103969.34;2047537;28;45498;-71
2022/03/18 02:54:05;;;;;;;16.95;6.38;;;;;;;-2.33;97.33;103963.44;2047622;28;41948;-69
2022/03/18 02:55:08;;;;;;;22.48;6.93;;;;;;;-2.24;97.74;103968.47;2047110;28;43549;-69
2022/03/18 02:56:10;;;;;;;21.50;7.72;;;;;;;-2.24;97.53;103961.53;2047522;28;39741;-70
2022/03/18 02:57:12;;;;;;;13.13;5.60;;;;;;;-2.25;97.65;103964.94;2054706;28;43446;-70
2022/03/18 02:58:14;;;;;;;19.90;7.25;;;;;;;-2.30;98.29;103974.16;2054965;28;44124;-70
2022/03/18 02:59:16;;;;;;;17.17;5.65;;;;;;;-2.33;97.61;103972.22;2047130;28;46578;-69
2022/03/18 03:00:18;;;;;;;16.48;5.75;;;;;;;-2.38;97.57;103963.06;2047593;28;41135;-70
2022/03/18 03:01:20;;;;;;;15.43;4.95;;;;;;;-2.43;97.76;103967.03;2054917;28;40106;-69
2022/03/18 03:02:22;;;;;;;14.57;4.97;;;;;;;-2.43;97.42;103963.50;2046913;28;44800;-69
2022/03/18 03:03:23;;;;;;;10.20;5.15;;;;;;;-2.38;97.66;103964.78;2046571;28;44095;-69
2022/03/18 03:04:25;;;;;;;10.00;4.88;;;;;;;-2.34;98.22;103961.59;2047446;28;46312;-70
2022/03/18 03:08:08;;;;;;;15.88;5.70;;;;;;;-2.48;97.28;103965.72;2047510;28;44959;-69
2022/03/18 03:09:10;;;;;;;13.23;5.50;;;;;;;-2.50;97.44;103969.94;2047005;28;43676;-69
2022/03/18 03:10:12;;;;;;;17.98;5.68;;;;;;;-2.51;97.96;103960.28;2047709;28;38479;-69
2022/03/18 03:11:14;;;;;;;9.00;4.75;;;;;;;-2.54;97.08;103958.31;2046844;28;43892;-69
2022/03/18 03:12:16;;;;;;;15.07;5.85;;;;;;;-2.57;97.29;103962.38;2047232;28;45075;-69
2022/03/18 03:13:17;;;;;;;12.80;5.15;;;;;;;-2.58;97.44;103960.56;2046868;28;46373;-69
2022/03/18 03:14:19;;;;;;;21.10;7.43;;;;;;;-2.59;97.42;103967.50;2046511;28;43360;-69
2022/03/18 03:15:21;;;;;;;24.17;8.40;;;;;;;-2.57;97.86;103970.25;2047007;28;45409;-69
2022/03/18 03:16:22;;;;;;;19.02;7.30;;;;;;;-2.57;97.72;103965.00;2047054;28;44274;-69
2022/03/18 03:17:24;;;;;;;18.10;6.43;;;;;;;-2.56;97.58;103977.34;2046964;28;40221;-70
2022/03/18 03:18:28;;;;;;;17.40;7.28;;;;;;;-2.59;97.52;103977.09;2047094;28;45144;-70
2022/03/18 03:19:30;;;;;;;20.13;6.47;;;;;;;-2.60;97.54;103980.50;2047397;28;43227;-70
2022/03/18 03:20:33;;;;;;;26.20;8.45;;;;;;;-2.53;97.46;103974.94;2054619;28;42540;-69
2022/03/18 03:21:34;;;;;;;22.10;7.32;;;;;;;-2.39;97.90;103970.81;2047394;28;20079;-69
2022/03/18 03:22:36;;;;;;;17.20;7.00;;;;;;;-2.32;98.11;103978.38;2046526;28;45718;-68
2022/03/18 03:23:38;;;;;;;16.73;6.80;;;;;;;-2.27;99.02;103976.13;2046694;28;46032;-71
2022/03/18 03:24:39;;;;;;;16.15;7.07;;;;;;;-2.29;98.63;103978.63;2046674;28;43678;-69
2022/03/18 03:25:42;;;;;;;13.55;5.85;;;;;;;-2.26;98.85;103980.56;2054217;28;37532;-70
2022/03/18 03:26:44;;;;;;;14.13;4.95;;;;;;;-2.29;98.82;103972.47;2046986;28;43916;-70
2022/03/18 03:27:48;;;;;;;13.10;5.50;;;;;;;-2.28;99.05;103976.91;2047084;28;44464;-69
2022/03/18 03:28:52;;;;;;;18.13;6.93;;;;;;;-2.25;98.88;103979.78;2046788;28;45869;-69
2022/03/18 03:29:54;;;;;;;18.67;6.22;;;;;;;-2.22;98.81;103982.66;2046939;28;43472;-67
2022/03/18 03:30:56;;;;;;;15.77;5.60;;;;;;;-2.23;98.98;103986.06;2047478;28;43884;-69
2022/03/18 03:31:57;;;;;;;14.90;6.70;;;;;;;-2.25;98.56;103991.19;2047057;28;45437;-69
2022/03/18 03:33:00;;;;;;;15.00;6.20;;;;;;;-2.22;98.37;103980.03;2047521;28;43698;-69
2022/03/18 03:34:02;;;;;;;20.15;5.88;;;;;;;-2.20;99.16;103978.44;2047050;28;46952;-70
2022/03/18 03:35:06;;;;;;;14.50;6.80;;;;;;;-2.15;98.44;103979.72;2047007;28;38990;-70
2022/03/18 03:36:08;;;;;;;14.52;6.43;;;;;;;-2.10;98.90;103980.97;2047137;28;44270;-68
2022/03/18 03:37:14;;;;;;;19.63;6.93;;;;;;;-2.10;98.82;103978.31;2046831;28;46565;-69
2022/03/18 03:38:15;;;;;;;13.88;7.00;;;;;;;-2.11;99.17;103980.06;2055232;28;20924;-70
2022/03/18 03:39:17;;;;;;;20.00;7.65;;;;;;;-2.14;98.33;103984.16;2054768;28;43689;-66
2022/03/18 03:40:19;;;;;;;15.75;5.63;;;;;;;-2.21;98.72;103987.09;2054163;28;44600;-66
2022/03/18 03:41:23;;;;;;;12.43;4.97;;;;;;;-2.26;98.54;103991.06;2055410;28;20050;-69
2022/03/18 03:42:24;;;;;;;11.25;5.57;;;;;;;-2.32;98.13;103997.63;2045838;28;44051;-68
2022/03/18 03:43:26;;;;;;;15.85;6.10;;;;;;;-2.34;98.60;104006.19;2046571;28;43388;-69
2022/03/18 03:44:28;;;;;;;12.55;5.10;;;;;;;-2.38;98.29;103997.16;2046073;28;45687;-68
2022/03/18 03:45:29;;;;;;;10.55;5.75;;;;;;;-2.42;98.56;104008.22;2046777;28;43640;-69
2022/03/18 03:46:33;;;;;;;10.20;5.20;;;;;;;-2.45;97.68;104005.34;2054348;28;40825;-69
2022/03/18 03:47:40;;;;;;;15.50;5.47;;;;;;;-2.48;98.02;104012.97;2054663;28;20240;-70
2022/03/18 03:48:42;;;;;;;18.00;5.65;;;;;;;-2.52;97.70;104008.25;2054199;28;42073;-70
2022/03/18 03:49:46;;;;;;;13.23;5.60;;;;;;;-2.47;97.93;104013.91;2054685;28;43066;-70
2022/03/18 03:50:48;;;;;;;23.05;6.63;;;;;;;-2.51;98.31;104002.25;2046645;28;45129;-70
2022/03/18 03:51:49;;;;;;;11.43;5.80;;;;;;;-2.43;98.37;104005.47;2047252;28;43339;-69
2022/03/18 03:52:51;;;;;;;15.60;6.32;;;;;;;-2.47;98.63;103999.06;2046762;28;44190;-69
2022/03/18 03:53:53;;;;;;;11.45;4.95;;;;;;;-2.52;98.90;104006.56;2054691;28;44348;-70
2022/03/18 03:54:54;;;;;;;14.68;6.47;;;;;;;-2.53;98.43;104009.03;2053999;28;34255;-70
2022/03/18 03:55:58;;;;;;;13.23;5.72;;;;;;;-2.56;98.29;104008.81;2047231;28;46119;-70
2022/03/18 03:57:00;;;;;;;16.30;6.97;;;;;;;-2.59;98.69;104008.56;2047175;28;42351;-70
2022/03/18 03:58:02;;;;;;;16.17;6.03;;;;;;;-2.62;98.25;104009.25;2046782;28;44416;-70
2022/03/18 03:59:03;;;;;;;14.70;5.18;;;;;;;-2.61;98.43;104015.41;2046738;28;44245;-70
2022/03/18 04:00:10;;;;;;;18.02;6.32;;;;;;;-2.66;98.44;104006.25;2047165;28;42529;-70
2022/03/18 04:01:12;;;;;;;13.60;5.18;;;;;;;-2.69;98.28;104013.06;2054191;28;44930;-70
2022/03/18 04:02:14;;;;;;;13.88;4.47;;;;;;;-2.70;97.92;104013.84;2053924;28;43687;-70
2022/03/18 04:03:15;;;;;;;13.45;6.03;;;;;;;-2.64;98.49;104008.19;2047178;28;44674;-70
2022/03/18 04:04:17;;;;;;;14.48;5.80;;;;;;;-2.65;98.17;104015.97;2047305;28;44572;-70
2022/03/18 04:05:19;;;;;;;17.45;6.25;;;;;;;-2.58;98.92;104013.03;2047544;28;20147;-70
2022/03/18 04:06:21;;;;;;;16.27;5.72;;;;;;;-2.55;98.22;104015.88;2047105;28;46005;-69
2022/03/18 04:07:25;;;;;;;11.85;5.20;;;;;;;-2.56;98.81;104020.22;2046788;28;43239;-70
2022/03/18 04:08:27;;;;;;;15.50;5.68;;;;;;;-2.57;98.95;104018.38;2054247;28;43321;-69
2022/03/18 04:09:31;;;;;;;16.67;5.28;;;;;;;-2.58;99.02;104020.91;2055009;28;20031;-69
2022/03/18 04:10:33;;;;;;;13.00;4.70;;;;;;;-2.61;98.93;104020.66;2054613;28;20035;-70
2022/03/18 04:11:34;;;;;;;11.07;4.85;;;;;;;-2.65;98.88;104022.09;2046681;28;46346;-69
2022/03/18 04:12:36;;;;;;;9.50;3.80;;;;;;;-2.66;98.47;104028.13;2054724;28;42330;-70
2022/03/18 04:13:38;;;;;;;20.13;6.05;;;;;;;-2.72;98.84;104022.41;2054492;28;20056;-69
2022/03/18 04:14:40;;;;;;;13.70;5.30;;;;;;;-2.73;98.59;104026.75;2046489;28;46451;-70
2022/03/18 04:15:42;;;;;;;13.52;4.90;;;;;;;-2.73;98.50;104037.22;2047717;28;20083;-70
2022/03/18 04:16:44;;;;;;;9.95;5.20;;;;;;;-2.76;98.80;104042.22;2046889;28;45109;-69
2022/03/18 04:17:48;;;;;;;13.68;5.72;;;;;;;-2.77;98.33;104035.13;2054304;28;43978;-70
2022/03/18 04:18:50;;;;;;;12.25;5.05;;;;;;;-2.80;98.63;104039.19;2053430;28;45475;-70
2022/03/18 04:19:54;;;;;;;20.73;5.60;;;;;;;-2.80;98.49;104045.38;2048028;28;20786;-70
2022/03/18 04:20:56;;;;;;;13.35;5.40;;;;;;;-2.78;98.82;104043.78;2046941;28;42068;-70
2022/03/18 04:21:57;;;;;;;25.80;7.53;;;;;;;-2.74;98.61;104047.59;2053840;28;43288;-71
2022/03/18 04:22:59;;;;;;;17.60;6.55;;;;;;;-2.76;99.09;104047.47;2054201;28;45917;-71
2022/03/18 04:24:01;;;;;;;12.80;6.00;;;;;;;-2.74;99.08;104048.50;2046843;28;45463;-70
2022/03/18 04:25:03;;;;;;;18.92;6.78;;;;;;;-2.71;99.04;104040.88;2046658;28;46908;-69
2022/03/18 04:26:07;;;;;;;17.67;6.88;;;;;;;-2.73;98.91;104039.84;2046109;28;40775;-72
2022/03/18 04:27:09;;;;;;;25.88;7.45;;;;;;;-2.69;98.61;104055.03;2047048;28;44427;-69
2022/03/18 04:28:11;;;;;;;15.18;5.53;;;;;;;-2.72;98.57;104054.78;2046995;28;45110;-71
2022/03/18 04:29:13;;;;;;;13.90;6.28;;;;;;;-2.72;98.61;104054.78;2047060;28;43197;-71
2022/03/18 04:30:15;;;;;;;18.45;6.35;;;;;;;-2.74;98.74;104056.34;2046737;28;31850;-71
2022/03/18 04:31:17;;;;;;;16.52;5.93;;;;;;;-2.75;98.24;104051.88;2046956;28;43516;-69
2022/03/18 04:32:19;;;;;;;17.02;6.72;;;;;;;-2.74;98.52;104045.88;2046668;28;43932;-70
2022/03/18 04:33:21;;;;;;;16.15;7.50;;;;;;;-2.67;98.88;104043.72;2046222;28;44352;-69
2022/03/18 04:34:22;;;;;;;21.15;7.50;;;;;;;-2.68;99.07;104050.69;2046121;28;43898;-69
2022/03/18 04:35:24;;;;;;;15.55;7.05;;;;;;;-2.70;98.55;104057.53;2053857;28;43936;-69
2022/03/18 04:36:26;;;;;;;16.42;6.55;;;;;;;-2.72;98.92;104057.41;2046708;28;44585;-70
2022/03/18 04:37:29;;;;;;;20.13;7.07;;;;;;;-2.76;98.78;104052.69;2054553;28;20905;-69
2022/03/18 04:38:31;;;;;;;14.52;5.75;;;;;;;-2.77;98.58;104061.34;2053860;28;43998;-69
2022/03/18 04:39:33;;;;;;;18.88;7.05;;;;;;;-2.81;98.61;104061.88;2046980;28;43375;-69
2022/03/18 04:40:34;;;;;;;18.02;6.40;;;;;;;-2.76;98.88;104063.19;2045731;28;43469;-70
2022/03/18 04:41:36;;;;;;;19.48;6.93;;;;;;;-2.76;98.87;104063.19;2046448;28;44378;-69
2022/03/18 04:42:40;;;;;;;16.90;7.70;;;;;;;-2.76;98.67;104068.44;2047059;28;35636;-69
2022/03/18 04:43:42;;;;;;;19.80;7.18;;;;;;;-2.79;98.78;104067.25;2047523;28;44892;-69
2022/03/18 04:44:43;;;;;;;13.57;6.18;;;;;;;-2.81;99.11;104069.75;2046782;28;42357;-69
2022/03/18 04:45:45;;;;;;;13.73;6.95;;;;;;;-2.80;98.43;104074.22;2047240;28;39059;-69
2022/03/18 04:46:49;;;;;;;21.35;8.82;;;;;;;-2.78;99.00;104075.25;2047077;28;44248;-70
2022/03/18 04:47:51;;;;;;;17.73;7.72;;;;;;;-2.75;99.16;104069.34;2046996;28;44019;-69
2022/03/18 04:48:52;;;;;;;17.48;8.18;;;;;;;-2.76;98.96;104076.31;2046724;28;43845;-69
2022/03/18 04:49:54;;;;;;;17.70;7.35;;;;;;;-2.76;98.75;104078.03;2046213;28;43351;-69
2022/03/18 04:50:56;;;;;;;21.75;9.13;;;;;;;-2.77;99.11;104086.66;2046602;28;42917;-69
2022/03/18 04:51:58;;;;;;;19.75;8.10;;;;;;;-2.80;98.72;104086.41;2053845;28;46105;-69
2022/03/18 04:53:00;;;;;;;18.08;7.45;;;;;;;-2.83;98.63;104087.06;2053764;28;32115;-69
2022/03/18 04:54:01;;;;;;;16.48;6.60;;;;;;;-2.84;98.75;104092.19;2046819;28;46043;-69
2022/03/18 04:55:05;;;;;;;23.67;7.63;;;;;;;-2.87;99.06;104087.63;2047004;28;43383;-69
2022/03/18 04:57:15;;;;;;;20.45;8.18;;;;;;;-2.91;98.65;104089.06;2047020;28;45825;-69